Lahore Weather



Lahore's Current Weather

Temprature 22.99o smoke

smoke

Rain: 0 %

Min Temprature22.99o
Max Temprature23.06o
Humidity68
Wind Speed6.17 m/h
Sun Rise05:01:35
Sun Set18:57:36
Current Time: 24-May-2022 08:12:59
Lat/Lon: 31.5497, 74.3436




Lahore's Geo Location



Lahore's Weather Forecast

Time Overall Temp Min Temp Max Temp Humidity Wind Speed Rain
24-May-2022 (Tue)
11:00:00 scattered clouds 25.480 25.480 30.460 57 3.62 m/h 0 %
14:00:00 few clouds 30.260 30.260 33.890 40 0.67 m/h 0 %
17:00:00 clear sky 33.910 33.910 33.910 22 3.05 m/h 0 %
20:00:00 clear sky 31.060 31.060 31.060 29 2.36 m/h 0 %
23:00:00 clear sky 29.610 29.610 29.610 32 2.03 m/h 0 %
25-May-2022 (Wed)
02:00:00 clear sky 28.100 28.100 28.100 33 2.08 m/h 0 %
05:00:00 clear sky 27.070 27.070 27.070 34 1.97 m/h 0 %
08:00:00 clear sky 31.570 31.570 31.570 25 2.78 m/h 0 %
11:00:00 clear sky 36.440 36.440 36.440 18 0.64 m/h 0 %
14:00:00 clear sky 38.060 38.060 38.060 15 2.23 m/h 0 %
17:00:00 clear sky 37.840 37.840 37.840 15 2.69 m/h 0 %
20:00:00 clear sky 34.920 34.920 34.920 20 2.13 m/h 0 %
23:00:00 clear sky 33.260 33.260 33.260 22 2.36 m/h 0 %
26-May-2022 (Thu)
02:00:00 clear sky 32.050 32.050 32.050 24 0.97 m/h 0 %
05:00:00 clear sky 30.680 30.680 30.680 26 2.36 m/h 0 %
08:00:00 clear sky 35.120 35.120 35.120 20 2.5 m/h 0 %
11:00:00 clear sky 39.590 39.590 39.590 15 3.08 m/h 0 %
14:00:00 clear sky 41.500 41.500 41.500 12 2.92 m/h 0 %
17:00:00 clear sky 41.290 41.290 41.290 12 2.39 m/h 0 %
20:00:00 clear sky 37.790 37.790 37.790 16 1.25 m/h 0 %
23:00:00 clear sky 36.030 36.030 36.030 17 0.4 m/h 0 %
27-May-2022 (Fri)
02:00:00 clear sky 34.260 34.260 34.260 19 1.59 m/h 0 %
05:00:00 clear sky 31.830 31.830 31.830 23 2.14 m/h 0 %
08:00:00 clear sky 36.980 36.980 36.980 17 2.38 m/h 0 %
11:00:00 clear sky 42.270 42.270 42.270 12 3.15 m/h 0 %
14:00:00 clear sky 44.730 44.730 44.730 9 2.76 m/h 0 %
17:00:00 clear sky 44.390 44.390 44.390 11 4.01 m/h 0 %
20:00:00 clear sky 40.120 40.120 40.120 17 1.81 m/h 0 %
23:00:00 clear sky 37.970 37.970 37.970 20 2.36 m/h 0 %
28-May-2022 (Sat)
02:00:00 clear sky 35.210 35.210 35.210 23 3.41 m/h 0 %
05:00:00 clear sky 33.950 33.950 33.950 27 3.65 m/h 0 %
08:00:00 clear sky 37.910 37.910 37.910 23 4.91 m/h 0 %
11:00:00 clear sky 42.700 42.700 42.700 12 5.52 m/h 0 %
14:00:00 clear sky 44.950 44.950 44.950 8 6.28 m/h 0 %
17:00:00 clear sky 45.070 45.070 45.070 6 5.91 m/h 0 %
20:00:00 clear sky 39.810 39.810 39.810 10 3.96 m/h 0 %
23:00:00 clear sky 35.550 35.550 35.550 21 8.8 m/h 0 %
29-May-2022 (Sun)
02:00:00 clear sky 32.740 32.740 32.740 33 8.18 m/h 0 %
05:00:00 clear sky 31.230 31.230 31.230 36 6.46 m/h 0 %
08:00:00 scattered clouds 34.730 34.730 34.730 36 7.38 m/h 0 %


Lahore's Tourist Spots

Historical Places in Lahore

Famous Cities (61)